createdAt,value
2022-09-24T00:02:54.419Z,86.70
2022-09-24T00:06:02.473Z,87.00
2022-09-24T00:09:05.424Z,86.70
2022-09-24T00:12:08.174Z,87.10
2022-09-24T00:15:11.561Z,87.50
2022-09-24T00:18:18.710Z,88.00
2022-09-24T00:21:24.321Z,88.30
2022-09-24T00:24:44.633Z,88.10
2022-09-24T00:27:47.377Z,88.20
2022-09-24T00:30:52.379Z,87.70
2022-09-24T00:33:56.548Z,88.40
2022-09-24T00:36:59.501Z,88.50
2022-09-24T00:40:02.706Z,88.20
2022-09-24T00:43:24.457Z,88.90
2022-09-24T00:46:31.190Z,89.20
2022-09-24T00:49:35.630Z,88.70
2022-09-24T00:52:43.500Z,89.00
2022-09-24T00:55:51.355Z,89.20
2022-09-24T00:58:56.952Z,89.30
2022-09-24T01:01:59.793Z,89.10
2022-09-24T01:05:04.593Z,88.90
2022-09-24T01:08:08.363Z,89.00
2022-09-24T01:11:36.896Z,89.10
2022-09-24T01:15:00.568Z,89.00
2022-09-24T01:18:08.318Z,88.60
2022-09-24T01:21:26.462Z,88.90
2022-09-24T01:24:53.558Z,88.60
2022-09-24T01:28:09.205Z,88.30
2022-09-24T01:31:20.920Z,88.40
2022-09-24T01:34:29.352Z,88.90
2022-09-24T01:37:35.196Z,89.00
2022-09-24T01:40:39.754Z,88.40
2022-09-24T01:43:43.802Z,88.70
2022-09-24T01:46:48.194Z,88.70
2022-09-24T01:49:53.662Z,89.10
2022-09-24T01:53:01.190Z,89.10
2022-09-24T01:56:08.698Z,89.50
2022-09-24T01:59:16.354Z,88.90
2022-09-24T02:02:28.831Z,89.30
2022-09-24T02:05:35.330Z,89.80
2022-09-24T02:08:42.580Z,90.00
2022-09-24T02:11:54.325Z,89.40
2022-09-24T02:15:02.948Z,89.60
2022-09-24T02:18:12.118Z,89.90
2022-09-24T02:21:17.957Z,90.00
2022-09-24T02:24:23.993Z,90.00
2022-09-24T02:27:28.508Z,89.70
2022-09-24T02:30:38.401Z,89.50
2022-09-24T02:34:02.838Z,89.70
2022-09-24T02:37:09.325Z,90.00
2022-09-24T02:40:15.619Z,89.70
2022-09-24T02:43:18.457Z,89.40
2022-09-24T02:46:21.440Z,90.00
2022-09-24T02:49:25.827Z,89.80
2022-09-24T02:52:28.974Z,89.80
2022-09-24T02:55:32.694Z,90.10
2022-09-24T02:58:37.280Z,90.00
2022-09-24T03:01:40.358Z,90.70
2022-09-24T03:04:44.623Z,90.60
2022-09-24T03:07:47.375Z,90.60
2022-09-24T03:10:51.101Z,90.60
2022-09-24T03:13:53.836Z,90.60
2022-09-24T03:16:56.572Z,90.70
2022-09-24T03:20:00.836Z,91.00
2022-09-24T03:23:03.725Z,91.00
2022-09-24T03:26:06.846Z,91.10
2022-09-24T03:29:10.209Z,91.00
2022-09-24T03:32:12.010Z,91.10
2022-09-24T03:35:16.234Z,91.30
2022-09-24T03:38:19.029Z,91.70
2022-09-24T03:41:22.023Z,92.10
2022-09-24T03:44:25.760Z,92.00
2022-09-24T03:47:28.731Z,92.20
2022-09-24T03:50:33.131Z,92.30
2022-09-24T03:53:36.318Z,92.50
2022-09-24T03:56:39.104Z,92.70
2022-09-24T03:59:41.962Z,92.70
2022-09-24T04:02:45.027Z,92.80
2022-09-24T04:05:50.621Z,92.90
2022-09-24T04:08:53.520Z,92.80
2022-09-24T04:11:56.316Z,92.90
2022-09-24T04:14:59.089Z,92.80
2022-09-24T04:18:01.831Z,92.80
2022-09-24T04:21:05.986Z,92.80
2022-09-24T04:24:08.836Z,93.00
2022-09-24T04:27:11.704Z,92.80
2022-09-24T04:30:16.016Z,93.00
2022-09-24T04:33:19.420Z,92.90
2022-09-24T04:36:23.542Z,92.90
2022-09-24T04:39:27.740Z,93.10
2022-09-24T04:42:30.516Z,93.30
2022-09-24T04:45:34.286Z,93.50
2022-09-24T04:48:38.156Z,93.40
2022-09-24T04:51:42.526Z,93.70
2022-09-24T04:54:47.358Z,93.60
2022-09-24T04:57:50.985Z,93.70
2022-09-24T05:00:54.229Z,93.50
2022-09-24T05:03:56.983Z,93.60
2022-09-24T05:07:01.074Z,93.40
2022-09-24T05:10:04.257Z,93.00
2022-09-24T05:13:07.059Z,92.90
2022-09-24T05:16:10.120Z,92.90
2022-09-24T05:19:13.198Z,93.20
2022-09-24T05:22:17.275Z,93.00
2022-09-24T05:25:22.230Z,93.00
2022-09-24T05:28:24.139Z,93.10
2022-09-24T05:31:26.933Z,93.30
2022-09-24T05:34:30.215Z,93.10
2022-09-24T05:37:34.321Z,93.60
2022-09-24T05:40:49.341Z,93.60
2022-09-24T05:43:52.143Z,93.70
2022-09-24T05:46:55.024Z,93.80
2022-09-24T05:49:57.829Z,94.00
2022-09-24T05:53:02.574Z,94.20
2022-09-24T05:56:05.534Z,94.20
2022-09-24T05:59:08.390Z,94.40
2022-09-24T06:02:14.962Z,94.50
2022-09-24T06:05:17.876Z,94.50
2022-09-24T06:08:22.167Z,94.50
2022-09-24T06:11:25.570Z,94.50
2022-09-24T06:14:28.466Z,94.40
2022-09-24T06:17:31.829Z,94.50
2022-09-24T06:20:34.610Z,94.30
2022-09-24T06:23:39.496Z,94.50
2022-09-24T06:26:42.242Z,94.50
2022-09-24T06:29:45.028Z,94.10
2022-09-24T06:32:47.862Z,94.80
2022-09-24T06:35:50.867Z,94.70
2022-09-24T06:38:55.227Z,94.40
2022-09-24T06:41:58.406Z,95.20
2022-09-24T06:45:01.343Z,95.40
2022-09-24T06:48:06.713Z,95.40
2022-09-24T06:51:09.494Z,94.90
2022-09-24T06:54:14.186Z,95.30
2022-09-24T06:57:17.172Z,95.00
2022-09-24T07:00:20.027Z,95.20
2022-09-24T07:03:23.329Z,94.90
2022-09-24T07:06:26.173Z,95.10
2022-09-24T07:09:30.305Z,94.90
2022-09-24T07:12:34.676Z,94.90
2022-09-24T07:15:37.723Z,95.30
2022-09-24T07:18:40.578Z,94.80
2022-09-24T07:21:43.410Z,95.40
2022-09-24T07:24:48.357Z,95.10
2022-09-24T07:27:51.381Z,94.70
2022-09-24T07:30:58.805Z,94.90
2022-09-24T07:34:01.736Z,95.00
2022-09-24T07:37:04.587Z,95.20
2022-09-24T07:40:10.087Z,95.70
2022-09-24T07:43:14.135Z,96.30
2022-09-24T07:46:17.073Z,95.50
2022-09-24T07:49:20.010Z,96.00
2022-09-24T07:52:22.804Z,95.80
2022-09-24T07:55:27.711Z,96.00
2022-09-24T07:58:30.969Z,96.00
2022-09-24T08:01:34.688Z,96.30
2022-09-24T08:04:37.895Z,96.70
2022-09-24T08:07:40.922Z,97.10
2022-09-24T08:10:45.392Z,97.40
2022-09-24T08:13:48.386Z,97.00
2022-09-24T08:16:51.213Z,97.00
2022-09-24T08:19:56.810Z,96.70
2022-09-24T08:23:02.786Z,96.80
2022-09-24T08:26:07.526Z,96.90
2022-09-24T08:29:10.710Z,96.80
2022-09-24T08:32:13.944Z,96.70
2022-09-24T08:35:16.771Z,97.00
2022-09-24T08:38:20.883Z,96.60
2022-09-24T08:41:43.625Z,96.60
2022-09-24T08:45:06.970Z,96.50
2022-09-24T08:48:14.830Z,96.30
2022-09-24T08:51:20.099Z,97.20
2022-09-24T08:54:25.527Z,97.20
2022-09-24T08:57:29.882Z,97.30
2022-09-24T09:22:30.928Z,95.90
2022-09-24T09:25:37.093Z,96.30
2022-09-24T09:28:41.621Z,96.20
2022-09-24T09:31:59.630Z,96.40
2022-09-24T09:35:12.298Z,96.20
2022-09-24T09:38:23.559Z,96.20
2022-09-24T09:41:35.776Z,96.30
2022-09-24T09:44:42.426Z,96.00
2022-09-24T10:00:05.063Z,96.70
2022-09-24T10:03:08.534Z,97.00
2022-09-24T10:06:14.568Z,96.40
2022-09-24T10:09:20.400Z,96.60
2022-09-24T10:12:24.339Z,96.40
2022-09-24T10:15:28.608Z,97.00
2022-09-24T10:18:34.578Z,96.90
2022-09-24T10:21:38.404Z,96.70
2022-09-24T10:24:44.415Z,96.80
2022-09-24T10:27:48.420Z,96.90
2022-09-24T10:30:58.961Z,96.90
2022-09-24T10:34:03.134Z,97.20
2022-09-24T10:37:15.213Z,97.50
2022-09-24T10:40:24.326Z,97.60
2022-09-24T10:43:27.239Z,97.30
2022-09-24T10:46:49.003Z,97.30
2022-09-24T10:50:22.183Z,97.70
2022-09-24T10:53:38.649Z,97.80
2022-09-24T10:56:46.602Z,98.10
2022-09-24T11:00:02.110Z,98.00
2022-09-24T11:03:59.477Z,97.80
2022-09-24T11:07:27.078Z,97.90
2022-09-24T11:10:45.547Z,97.80
2022-09-24T11:13:56.079Z,97.70
2022-09-24T11:17:25.734Z,98.00
2022-09-24T11:20:36.996Z,97.40
2022-09-24T11:24:04.130Z,97.40
2022-09-24T11:27:28.389Z,97.70
2022-09-24T11:30:39.507Z,98.40
2022-09-24T11:34:06.030Z,97.90
2022-09-24T12:37:02.123Z,98.00
2022-09-24T12:40:30.080Z,98.40
2022-09-24T12:43:40.293Z,98.40
2022-09-24T12:46:45.870Z,98.10
2022-09-24T12:49:55.614Z,98.50
2022-09-24T12:52:58.817Z,98.50
2022-09-24T12:56:05.234Z,98.00
2022-09-24T12:59:25.943Z,97.90
2022-09-24T13:02:31.284Z,98.20
2022-09-24T13:05:47.224Z,98.00
2022-09-24T13:08:50.720Z,98.10
2022-09-24T13:12:04.966Z,98.10
2022-09-24T13:15:10.640Z,97.60
2022-09-24T13:18:24.210Z,97.50
2022-09-24T13:21:28.944Z,97.20
2022-09-24T13:24:36.166Z,97.40
2022-09-24T13:27:42.698Z,97.20
2022-09-24T13:30:49.392Z,97.30
2022-09-24T13:33:56.439Z,97.20
2022-09-24T13:37:03.265Z,97.30
2022-09-24T13:40:16.256Z,97.00
2022-09-24T13:43:36.731Z,96.80
2022-09-24T13:46:43.799Z,96.50
2022-09-24T13:49:48.905Z,96.30
2022-09-24T13:52:56.629Z,96.40
2022-09-24T13:56:03.269Z,96.80
2022-09-24T13:59:11.773Z,96.10
2022-09-24T14:02:26.761Z,96.10
2022-09-24T14:05:31.339Z,96.40
2022-09-24T14:08:34.386Z,96.60
2022-09-24T14:11:37.384Z,96.30
2022-09-24T14:14:45.700Z,96.40
2022-09-24T14:17:57.498Z,95.90
2022-09-24T14:21:06.173Z,95.90
2022-09-24T14:24:16.889Z,96.20
2022-09-24T16:09:35.370Z,97.20
2022-09-24T16:12:38.659Z,97.60
2022-09-24T16:15:41.645Z,97.60
2022-09-24T16:18:46.296Z,97.60
2022-09-24T16:21:49.141Z,97.60
2022-09-24T16:24:52.087Z,97.60
2022-09-24T16:27:56.379Z,97.50
2022-09-24T16:30:59.623Z,97.50
2022-09-24T16:34:03.952Z,97.60
2022-09-24T16:37:06.823Z,97.50
2022-09-24T16:40:10.879Z,97.70
2022-09-24T16:43:13.805Z,97.70
2022-09-24T16:46:20.731Z,97.70
2022-09-24T16:49:25.426Z,97.80
2022-09-24T16:52:31.470Z,97.90
2022-09-24T16:55:34.336Z,97.90
2022-09-24T16:58:37.817Z,97.90
2022-09-24T17:01:42.555Z,97.90
2022-09-24T17:04:46.867Z,97.90
2022-09-24T17:07:49.745Z,98.00
2022-09-24T17:10:53.896Z,97.80
2022-09-24T17:14:00.880Z,97.90
2022-09-24T17:17:03.742Z,98.00
2022-09-24T17:20:09.047Z,98.00
2022-09-24T17:23:11.937Z,98.00
2022-09-24T17:26:17.321Z,98.10
2022-09-24T17:29:22.532Z,97.70
2022-09-24T17:32:25.970Z,97.80
2022-09-24T17:35:30.162Z,97.90
2022-09-24T17:38:34.459Z,98.00
2022-09-24T17:41:37.464Z,98.00
2022-09-24T17:44:40.294Z,98.00
2022-09-24T17:47:58.506Z,98.00
2022-09-24T17:51:05.544Z,98.00
2022-09-24T17:54:10.403Z,97.90
2022-09-24T17:57:13.221Z,97.60
2022-09-24T18:00:16.280Z,97.90
2022-09-24T18:03:19.350Z,98.10
2022-09-24T18:06:27.122Z,98.10
2022-09-24T18:09:32.222Z,98.30
2022-09-24T18:12:35.055Z,98.30
2022-09-24T18:15:38.098Z,98.60
2022-09-24T18:18:41.378Z,99.00
2022-09-24T18:21:46.652Z,98.70
2022-09-24T18:24:49.509Z,98.40
2022-09-24T18:27:52.372Z,98.60
2022-09-24T18:31:04.459Z,98.70
2022-09-24T18:34:08.964Z,98.70
2022-09-24T18:37:13.141Z,98.80
2022-09-24T18:40:16.065Z,98.80
2022-09-24T18:43:19.115Z,98.70
2022-09-24T18:46:23.680Z,98.80
2022-09-24T18:49:26.568Z,98.70
2022-09-24T18:52:32.442Z,98.60
2022-09-24T18:55:39.752Z,98.70
2022-09-24T18:58:42.738Z,98.80
2022-09-24T19:01:46.961Z,99.00
2022-09-24T19:04:50.096Z,98.70
2022-09-24T19:07:54.352Z,98.60
2022-09-24T19:11:01.997Z,98.60
2022-09-24T19:14:05.331Z,98.60
2022-09-24T19:17:08.197Z,98.60
2022-09-24T19:20:11.407Z,98.70
2022-09-24T19:23:17.409Z,98.80
2022-09-24T19:26:22.656Z,98.60
2022-09-24T19:29:26.463Z,98.60
2022-09-24T19:32:29.294Z,98.60
2022-09-24T19:35:32.222Z,98.60
2022-09-24T19:38:37.057Z,98.60
2022-09-24T19:41:40.165Z,98.60
2022-09-24T19:44:43.616Z,98.70
2022-09-24T19:47:46.523Z,98.70
2022-09-24T19:50:49.427Z,98.80
2022-09-24T19:53:55.429Z,98.90
2022-09-24T19:56:58.303Z,99.00
2022-09-24T20:00:01.658Z,99.10
2022-09-24T20:03:04.782Z,98.90
2022-09-24T20:06:08.889Z,98.60
2022-09-24T20:09:13.094Z,98.80
2022-09-24T20:12:17.047Z,98.70
2022-09-24T20:15:19.926Z,98.90
2022-09-24T20:18:22.777Z,98.90
2022-09-24T20:21:27.634Z,98.90
2022-09-24T20:24:31.902Z,98.80
2022-09-24T20:27:52.213Z,98.60
2022-09-24T20:30:55.142Z,98.60
2022-09-24T20:33:58.518Z,98.60
2022-09-24T20:37:01.919Z,98.60
2022-09-24T20:40:07.160Z,98.60
2022-09-24T20:43:10.140Z,98.60
2022-09-24T20:46:16.481Z,98.50
2022-09-24T20:49:22.570Z,98.40
2022-09-24T20:52:25.929Z,98.10
2022-09-24T20:55:30.559Z,98.00
2022-09-24T20:58:33.696Z,98.20
2022-09-24T21:01:37.487Z,98.20
2022-09-24T21:04:40.467Z,98.20
2022-09-24T21:07:43.428Z,98.20
2022-09-24T21:10:47.767Z,98.40
2022-09-24T21:13:52.810Z,98.50
2022-09-24T21:16:56.715Z,98.40
2022-09-24T21:19:59.582Z,98.50
2022-09-24T21:23:02.489Z,98.50
2022-09-24T21:26:14.880Z,98.70
2022-09-24T21:29:20.973Z,98.60
2022-09-24T21:32:23.929Z,98.30
2022-09-24T21:35:27.040Z,98.30
2022-09-24T21:38:30.307Z,98.30
2022-09-24T21:41:37.391Z,98.60
2022-09-24T21:44:41.546Z,98.60
2022-09-24T21:47:44.372Z,98.70
2022-09-24T21:50:47.201Z,98.70
2022-09-24T21:53:50.965Z,98.70
2022-09-24T21:56:55.413Z,98.90
2022-09-24T22:00:01.422Z,98.70
2022-09-24T22:03:04.356Z,98.70
2022-09-24T22:06:07.529Z,98.50
2022-09-24T22:09:11.734Z,98.50
2022-09-24T22:12:16.595Z,98.50
2022-09-24T22:15:21.342Z,98.50
2022-09-24T22:18:24.467Z,98.60
2022-09-24T22:21:27.795Z,98.70
2022-09-24T22:24:30.839Z,98.70
2022-09-24T22:27:35.001Z,98.70
2022-09-24T22:30:42.942Z,98.70
2022-09-24T22:34:03.852Z,98.70
2022-09-24T22:37:07.940Z,98.60
2022-09-24T22:40:11.560Z,98.70
2022-09-24T22:43:15.799Z,98.60
2022-09-24T22:46:19.204Z,98.40
2022-09-24T22:49:22.477Z,98.20
2022-09-24T22:52:25.404Z,98.10
2022-09-24T22:55:28.545Z,98.10
2022-09-24T22:58:33.658Z,97.90
2022-09-24T23:01:41.538Z,97.70
2022-09-24T23:04:46.181Z,97.60
2022-09-24T23:07:49.075Z,97.30
2022-09-24T23:10:51.917Z,97.00
2022-09-24T23:13:57.819Z,96.90
2022-09-24T23:17:00.699Z,96.80
2022-09-24T23:20:04.245Z,96.60
2022-09-24T23:23:07.085Z,96.60
2022-09-24T23:26:16.611Z,96.50
2022-09-24T23:29:21.177Z,96.50
2022-09-24T23:32:24.058Z,96.30
2022-09-24T23:35:26.908Z,96.30
2022-09-24T23:41:33.607Z,96.00
2022-09-24T23:44:37.919Z,96.50
2022-09-24T23:47:40.786Z,97.00
2022-09-24T23:50:44.129Z,97.20
2022-09-24T23:53:47.379Z,97.10
2022-09-24T23:56:50.270Z,97.20
2022-09-24T23:59:54.479Z,97.20
